Time;durP1;ratioP1;P1;durP2;ratioP2;P2;SDS_P1;SDS_P2;PMS_P1;PMS_P2;Temp;Humidity;BMP_temperature;BMP_pressure;BME280_temperature;BME280_humidity;BME280_pressure;Samples;Min_cycle;Max_cycle;Signal;HPM_P1;HPM_P2
2020/12/14 00:00:07;;;;;;;127.18;44.38;;;;;;;;;;5015118;28;20029;-55
2020/12/14 00:02:33;;;;;;;93.43;37.83;;;;;;;;;;5015144;28;20038;-53
2020/12/14 00:04:59;;;;;;;104.35;41.42;;;;;;;;;;5015153;28;20061;-53
2020/12/14 00:07:25;;;;;;;107.55;43.15;;;;;;;;;;5015232;28;20482;-55
2020/12/14 00:09:51;;;;;;;305.02;101.85;;;;;;;;;;5014456;28;20050;-53
2020/12/14 00:12:17;;;;;;;124.47;46.88;;;;;;;;;;5015108;28;20469;-55
2020/12/14 00:14:43;;;;;;;105.28;40.10;;;;;;;;;;5015409;28;20068;-53
2020/12/14 00:17:09;;;;;;;107.25;41.13;;;;;;;;;;5015272;28;20037;-55
2020/12/14 00:19:35;;;;;;;271.20;89.38;;;;;;;;;;5014746;28;20025;-53
2020/12/14 00:22:01;;;;;;;298.98;97.75;;;;;;;;;;5015408;28;20061;-52
2020/12/14 00:24:27;;;;;;;151.02;52.55;;;;;;;;;;5014845;28;20029;-56
2020/12/14 00:26:53;;;;;;;98.85;40.20;;;;;;;;;;5014620;28;20474;-54
2020/12/14 00:29:20;;;;;;;102.63;40.25;;;;;;;;;;5014799;28;20559;-52
2020/12/14 00:31:53;;;;;;;182.52;65.00;;;;;;;;;;5014911;28;20033;-54
2020/12/14 00:34:19;;;;;;;97.57;40.22;;;;;;;;;;5014867;28;20022;-55
2020/12/14 00:36:46;;;;;;;98.40;40.80;;;;;;;;;;5015057;28;20464;-53
2020/12/14 00:39:12;;;;;;;77.47;32.70;;;;;;;;;;5014420;28;20022;-54
2020/12/14 00:41:38;;;;;;;102.60;41.30;;;;;;;;;;5014253;28;21779;-55
2020/12/14 00:44:04;;;;;;;93.18;38.65;;;;;;;;;;5011809;28;20029;-52
2020/12/14 00:46:30;;;;;;;121.18;47.60;;;;;;;;;;5014222;28;20056;-52
2020/12/14 00:48:56;;;;;;;89.47;37.95;;;;;;;;;;5012342;28;20028;-53
2020/12/14 00:51:29;;;;;;;114.03;46.17;;;;;;;;;;5014039;28;20489;-53
2020/12/14 00:53:55;;;;;;;127.05;48.60;;;;;;;;;;5014711;28;20037;-53
2020/12/14 00:56:21;;;;;;;107.65;44.50;;;;;;;;;;5014269;28;20026;-52
2020/12/14 00:58:48;;;;;;;166.60;60.78;;;;;;;;;;5014670;28;20488;-53
2020/12/14 01:01:15;;;;;;;108.68;44.83;;;;;;;;;;5014612;28;20080;-55
2020/12/14 01:03:42;;;;;;;130.15;49.17;;;;;;;;;;5014455;28;20366;-53
2020/12/14 01:06:08;;;;;;;104.95;41.70;;;;;;;;;;5014668;28;20373;-53
2020/12/14 01:08:34;;;;;;;166.45;61.67;;;;;;;;;;5014537;28;20091;-53
2020/12/14 01:11:01;;;;;;;169.73;62.63;;;;;;;;;;5014156;28;20050;-53
2020/12/14 01:13:27;;;;;;;119.32;45.72;;;;;;;;;;5014344;28;20068;-53
2020/12/14 01:15:53;;;;;;;96.50;40.03;;;;;;;;;;5014268;28;20061;-54
2020/12/14 01:18:19;;;;;;;116.85;46.20;;;;;;;;;;5030131;28;20421;-52
2020/12/14 01:20:46;;;;;;;72.45;32.88;;;;;;;;;;5014233;28;20064;-53
2020/12/14 01:23:12;;;;;;;135.73;54.90;;;;;;;;;;5013190;28;20473;-55
2020/12/14 01:25:38;;;;;;;127.88;53.15;;;;;;;;;;5014050;28;20248;-52
2020/12/14 01:28:06;;;;;;;115.43;49.08;;;;;;;;;;5014002;28;20529;-53
2020/12/14 01:30:32;;;;;;;123.97;52.40;;;;;;;;;;5013529;28;20034;-53
2020/12/14 01:32:58;;;;;;;58.72;28.33;;;;;;;;;;5013712;28;20034;-53
2020/12/14 01:35:25;;;;;;;73.32;34.58;;;;;;;;;;5013071;28;20054;-55
2020/12/14 01:37:51;;;;;;;73.28;34.88;;;;;;;;;;5013995;28;20092;-56
2020/12/14 01:40:18;;;;;;;53.15;26.15;;;;;;;;;;5013609;28;20033;-56
2020/12/14 01:42:44;;;;;;;77.97;35.10;;;;;;;;;;5013240;28;20029;-54
2020/12/14 01:45:10;;;;;;;65.18;30.83;;;;;;;;;;5009890;28;20022;-56
2020/12/14 01:47:37;;;;;;;84.15;36.90;;;;;;;;;;5013938;28;20497;-53
2020/12/14 01:50:06;;;;;;;65.80;30.85;;;;;;;;;;5012515;28;20041;-53
2020/12/14 01:52:33;;;;;;;69.05;33.83;;;;;;;;;;5010153;28;20069;-56
2020/12/14 01:55:01;;;;;;;134.63;57.28;;;;;;;;;;5013308;28;20093;-53
2020/12/14 01:57:27;;;;;;;67.55;32.17;;;;;;;;;;5013287;28;20500;-54
2020/12/14 01:59:55;;;;;;;66.88;31.38;;;;;;;;;;5013033;28;20030;-52
2020/12/14 02:02:21;;;;;;;81.65;36.03;;;;;;;;;;5012898;28;20055;-53
2020/12/14 02:04:47;;;;;;;65.93;31.35;;;;;;;;;;5013065;28;20442;-53
2020/12/14 02:07:13;;;;;;;63.55;30.60;;;;;;;;;;5012708;28;20489;-55
2020/12/14 02:09:40;;;;;;;53.95;27.52;;;;;;;;;;5012789;28;20057;-52
2020/12/14 02:12:06;;;;;;;53.65;26.10;;;;;;;;;;5013417;28;20029;-53
2020/12/14 02:14:36;;;;;;;54.22;26.88;;;;;;;;;;5012825;28;20541;-53
2020/12/14 02:17:03;;;;;;;51.92;27.35;;;;;;;;;;5011507;28;20032;-55
2020/12/14 02:19:29;;;;;;;49.95;25.00;;;;;;;;;;5012003;28;20104;-52
2020/12/14 02:21:57;;;;;;;50.38;25.98;;;;;;;;;;5012521;28;20077;-51
2020/12/14 02:24:23;;;;;;;62.03;29.35;;;;;;;;;;5012460;28;20014;-53
2020/12/14 02:26:49;;;;;;;50.50;26.50;;;;;;;;;;5012621;28;20057;-52
2020/12/14 02:29:16;;;;;;;52.83;25.25;;;;;;;;;;5012705;28;20022;-54
2020/12/14 02:31:42;;;;;;;54.60;27.20;;;;;;;;;;5012370;28;20022;-52
2020/12/14 02:34:09;;;;;;;45.38;24.10;;;;;;;;;;5011339;28;20045;-53
2020/12/14 02:36:35;;;;;;;45.50;22.48;;;;;;;;;;5012721;28;20056;-53
2020/12/14 02:39:01;;;;;;;56.80;25.35;;;;;;;;;;5011468;28;20145;-52
2020/12/14 02:41:27;;;;;;;72.05;31.75;;;;;;;;;;5011206;28;20038;-51
2020/12/14 02:43:53;;;;;;;76.88;35.38;;;;;;;;;;5009140;28;20025;-51
2020/12/14 02:46:19;;;;;;;75.25;35.60;;;;;;;;;;5011097;28;20029;-55
2020/12/14 02:48:45;;;;;;;71.22;34.25;;;;;;;;;;5010905;28;20026;-53
2020/12/14 02:51:11;;;;;;;65.78;31.70;;;;;;;;;;5009906;28;20021;-53
2020/12/14 02:53:37;;;;;;;54.05;28.38;;;;;;;;;;5011232;28;20018;-52
2020/12/14 02:56:07;;;;;;;59.33;27.65;;;;;;;;;;5010641;28;20105;-53
2020/12/14 02:58:33;;;;;;;42.75;21.55;;;;;;;;;;5012000;28;20088;-52
2020/12/14 03:00:59;;;;;;;43.40;22.33;;;;;;;;;;5011872;28;20026;-53
2020/12/14 03:03:25;;;;;;;43.08;20.80;;;;;;;;;;5011688;28;20045;-53
2020/12/14 03:05:51;;;;;;;48.83;23.55;;;;;;;;;;5011076;28;20105;-53
2020/12/14 03:08:17;;;;;;;44.90;22.17;;;;;;;;;;5012044;28;20041;-53
2020/12/14 03:10:44;;;;;;;46.92;23.23;;;;;;;;;;5011823;28;20066;-53
2020/12/14 03:13:10;;;;;;;45.58;22.75;;;;;;;;;;5012392;28;20026;-54
2020/12/14 03:15:36;;;;;;;44.65;22.05;;;;;;;;;;5011701;28;20033;-53
2020/12/14 03:18:06;;;;;;;47.13;23.33;;;;;;;;;;5012365;28;20030;-53
2020/12/14 03:20:32;;;;;;;40.15;19.90;;;;;;;;;;5011494;28;20026;-53
2020/12/14 03:22:58;;;;;;;43.75;21.92;;;;;;;;;;5012257;28;20034;-53
2020/12/14 03:25:24;;;;;;;40.53;20.02;;;;;;;;;;5012336;28;20424;-55
2020/12/14 03:27:50;;;;;;;33.40;17.98;;;;;;;;;;5012141;28;20037;-53
2020/12/14 03:30:16;;;;;;;36.22;19.27;;;;;;;;;;5012320;28;20118;-53
2020/12/14 03:32:42;;;;;;;37.10;19.10;;;;;;;;;;5012145;28;20087;-53
2020/12/14 03:35:08;;;;;;;43.55;20.00;;;;;;;;;;5012323;28;20022;-54
2020/12/14 03:37:34;;;;;;;35.88;18.15;;;;;;;;;;5012054;28;20034;-53
2020/12/14 03:40:00;;;;;;;32.03;17.00;;;;;;;;;;5011089;28;20373;-52
2020/12/14 03:42:29;;;;;;;35.85;19.08;;;;;;;;;;5012156;28;20367;-55
2020/12/14 03:44:55;;;;;;;30.52;16.05;;;;;;;;;;5011758;28;20030;-54
2020/12/14 03:47:21;;;;;;;33.17;16.42;;;;;;;;;;5012265;28;20508;-54
2020/12/14 03:49:47;;;;;;;30.05;16.95;;;;;;;;;;5011732;28;20028;-53
2020/12/14 03:52:14;;;;;;;32.05;16.70;;;;;;;;;;5011785;28;20018;-53
2020/12/14 03:54:40;;;;;;;34.08;17.27;;;;;;;;;;5012177;28;20080;-53
2020/12/14 03:57:06;;;;;;;28.38;16.75;;;;;;;;;;5012073;28;20022;-53
2020/12/14 03:59:32;;;;;;;33.72;18.70;;;;;;;;;;5012113;28;20109;-54
2020/12/14 04:01:58;;;;;;;129.82;42.45;;;;;;;;;;5011966;28;20036;-54
2020/12/14 04:04:24;;;;;;;105.18;35.47;;;;;;;;;;5012071;28;20080;-53
2020/12/14 04:06:50;;;;;;;75.20;31.38;;;;;;;;;;5011974;28;20037;-53
2020/12/14 04:09:16;;;;;;;127.63;49.25;;;;;;;;;;5011800;28;20050;-53
2020/12/14 04:11:42;;;;;;;90.25;38.90;;;;;;;;;;5011911;28;20021;-53
2020/12/14 04:14:08;;;;;;;70.70;31.42;;;;;;;;;;5011936;28;20022;-55
2020/12/14 04:16:34;;;;;;;56.13;26.20;;;;;;;;;;5012192;28;20053;-56
2020/12/14 04:19:00;;;;;;;40.15;21.58;;;;;;;;;;5015645;28;20026;-53
2020/12/14 04:21:26;;;;;;;38.83;20.88;;;;;;;;;;5015478;28;20436;-53
2020/12/14 04:23:52;;;;;;;39.05;20.90;;;;;;;;;;5015557;28;20029;-53
2020/12/14 04:26:18;;;;;;;50.10;25.45;;;;;;;;;;5015798;28;20030;-53
2020/12/14 04:28:44;;;;;;;46.28;24.52;;;;;;;;;;5015504;28;20022;-53
2020/12/14 04:31:10;;;;;;;39.55;21.27;;;;;;;;;;5015415;28;20029;-53
2020/12/14 04:33:38;;;;;;;53.10;26.88;;;;;;;;;;5015420;28;20051;-54
2020/12/14 04:36:06;;;;;;;40.90;21.85;;;;;;;;;;5015153;28;20101;-53
2020/12/14 04:38:32;;;;;;;41.25;21.80;;;;;;;;;;5015220;28;20049;-52
2020/12/14 04:41:01;;;;;;;53.58;26.67;;;;;;;;;;5015290;28;20576;-53
2020/12/14 04:43:28;;;;;;;67.45;35.65;;;;;;;;;;5014908;28;20033;-54
2020/12/14 04:45:55;;;;;;;69.72;35.42;;;;;;;;;;5014930;28;20037;-53
2020/12/14 04:48:21;;;;;;;54.47;28.33;;;;;;;;;;5015009;28;20026;-55
2020/12/14 04:50:47;;;;;;;45.35;25.00;;;;;;;;;;5015075;28;20101;-52
2020/12/14 04:53:13;;;;;;;53.45;27.83;;;;;;;;;;5014791;28;20022;-53
2020/12/14 04:55:39;;;;;;;56.65;28.95;;;;;;;;;;5015193;28;20021;-53
2020/12/14 04:58:06;;;;;;;67.07;33.78;;;;;;;;;;5014714;28;20025;-53
2020/12/14 05:00:32;;;;;;;61.17;29.55;;;;;;;;;;5014867;28;20113;-53
2020/12/14 05:02:58;;;;;;;69.45;36.22;;;;;;;;;;5014796;28;20544;-53
2020/12/14 05:05:24;;;;;;;71.22;35.75;;;;;;;;;;5013900;28;20049;-53
2020/12/14 05:07:51;;;;;;;61.88;32.33;;;;;;;;;;5014695;28;20100;-53
2020/12/14 05:10:22;;;;;;;61.70;31.70;;;;;;;;;;5014450;28;20053;-53
2020/12/14 05:12:48;;;;;;;53.30;28.25;;;;;;;;;;5014614;28;20037;-54
2020/12/14 05:15:24;;;;;;;51.17;27.10;;;;;;;;;;5014693;28;20083;-54
2020/12/14 05:17:51;;;;;;;61.05;30.52;;;;;;;;;;5002742;28;20489;-54
2020/12/14 05:20:18;;;;;;;63.03;33.35;;;;;;;;;;5014606;28;20026;-53
2020/12/14 05:23:04;;;;;;;57.40;30.85;;;;;;;;;;5014291;28;20022;-53
2020/12/14 05:25:30;;;;;;;51.30;25.60;;;;;;;;;;5014280;28;20477;-53
2020/12/14 05:28:02;;;;;;;51.50;26.27;;;;;;;;;;5014220;28;20049;-55
2020/12/14 05:30:38;;;;;;;47.65;24.05;;;;;;;;;;5013853;28;20363;-53
2020/12/14 05:33:06;;;;;;;45.20;24.15;;;;;;;;;;5013766;28;20030;-54
2020/12/14 05:35:33;;;;;;;50.88;25.80;;;;;;;;;;5014293;28;20367;-55
2020/12/14 05:38:13;;;;;;;51.08;24.52;;;;;;;;;;5013569;28;20049;-53
2020/12/14 05:40:39;;;;;;;50.47;25.23;;;;;;;;;;5013735;28;20033;-54
2020/12/14 05:43:09;;;;;;;52.35;26.77;;;;;;;;;;5013431;28;20385;-53
2020/12/14 05:45:36;;;;;;;54.28;27.98;;;;;;;;;;5013615;28;20014;-56
2020/12/14 05:48:02;;;;;;;52.38;26.23;;;;;;;;;;5013768;28;20109;-53
2020/12/14 05:50:28;;;;;;;47.72;24.88;;;;;;;;;;5013829;28;20093;-54
2020/12/14 05:52:55;;;;;;;43.17;22.45;;;;;;;;;;5013738;28;20144;-52
2020/12/14 05:55:24;;;;;;;49.67;25.20;;;;;;;;;;5013848;28;20026;-53
2020/12/14 05:57:51;;;;;;;47.78;23.38;;;;;;;;;;5013369;28;20109;-53
2020/12/14 06:00:18;;;;;;;43.92;21.95;;;;;;;;;;5013432;28;20022;-53
2020/12/14 06:02:44;;;;;;;50.47;26.13;;;;;;;;;;5012928;28;20049;-53
2020/12/14 06:05:10;;;;;;;48.10;23.92;;;;;;;;;;5013365;28;20030;-54
2020/12/14 06:07:41;;;;;;;47.00;23.92;;;;;;;;;;5013410;28;20032;-53
2020/12/14 06:10:08;;;;;;;49.25;26.20;;;;;;;;;;5012689;28;20041;-53
2020/12/14 06:12:36;;;;;;;45.08;24.52;;;;;;;;;;5013256;28;20022;-53
2020/12/14 06:15:07;;;;;;;53.17;27.10;;;;;;;;;;5013220;28;20480;-53
2020/12/14 06:17:33;;;;;;;42.17;22.92;;;;;;;;;;5012721;28;20033;-53
2020/12/14 06:20:05;;;;;;;47.15;25.40;;;;;;;;;;5013322;28;20080;-52
2020/12/14 06:22:32;;;;;;;61.10;30.27;;;;;;;;;;5012835;28;20033;-53
2020/12/14 06:25:03;;;;;;;78.90;40.45;;;;;;;;;;5013434;28;20033;-55
2020/12/14 06:27:29;;;;;;;135.43;65.43;;;;;;;;;;5012941;28;20053;-53
2020/12/14 06:29:55;;;;;;;76.45;38.13;;;;;;;;;;5012949;28;20474;-53
2020/12/14 06:32:38;;;;;;;62.72;33.50;;;;;;;;;;5013142;28;20030;-51
2020/12/14 06:35:14;;;;;;;75.10;39.50;;;;;;;;;;5013217;28;20026;-52
2020/12/14 06:37:48;;;;;;;62.17;34.67;;;;;;;;;;5012672;28;20084;-51
2020/12/14 06:40:14;;;;;;;53.45;30.10;;;;;;;;;;5012508;28;20030;-53
2020/12/14 06:42:40;;;;;;;57.15;30.95;;;;;;;;;;5012833;28;20068;-53
2020/12/14 06:45:07;;;;;;;51.20;27.40;;;;;;;;;;5012817;28;20026;-54
2020/12/14 06:47:47;;;;;;;45.20;24.33;;;;;;;;;;5012692;28;20521;-53
2020/12/14 06:50:23;;;;;;;42.50;24.17;;;;;;;;;;5012959;28;20030;-53
2020/12/14 06:52:49;;;;;;;56.45;27.30;;;;;;;;;;5012683;28;20027;-54
2020/12/14 06:55:15;;;;;;;56.42;29.15;;;;;;;;;;5012969;28;20026;-54
2020/12/14 06:57:41;;;;;;;61.90;32.85;;;;;;;;;;5012590;28;20057;-53
2020/12/14 07:00:08;;;;;;;67.88;36.35;;;;;;;;;;5012803;28;20022;-54
2020/12/14 07:02:35;;;;;;;64.75;33.47;;;;;;;;;;5012778;28;20025;-53
2020/12/14 07:05:02;;;;;;;70.28;36.03;;;;;;;;;;5012752;28;20053;-53
2020/12/14 07:07:32;;;;;;;52.83;28.60;;;;;;;;;;5012684;28;20057;-53
2020/12/14 07:10:15;;;;;;;57.90;31.85;;;;;;;;;;5012604;28;20050;-53
2020/12/14 07:12:41;;;;;;;53.10;30.60;;;;;;;;;;5012720;28;20022;-53
2020/12/14 07:15:07;;;;;;;55.63;30.15;;;;;;;;;;5012577;28;20103;-53
2020/12/14 07:17:33;;;;;;;52.22;28.02;;;;;;;;;;5012468;28;20208;-54
2020/12/14 07:20:00;;;;;;;48.53;27.05;;;;;;;;;;5012432;28;20014;-53
2020/12/14 07:22:48;;;;;;;50.85;28.88;;;;;;;;;;5027484;28;20397;-53
2020/12/14 07:25:21;;;;;;;52.35;28.95;;;;;;;;;;5012610;28;20030;-53
2020/12/14 07:27:47;;;;;;;46.28;25.95;;;;;;;;;;5012457;28;20064;-54
2020/12/14 07:30:13;;;;;;;52.47;28.05;;;;;;;;;;5012365;28;20029;-53
2020/12/14 07:32:39;;;;;;;46.13;26.65;;;;;;;;;;5012355;28;20355;-53
2020/12/14 07:54:41;;;;;;;49.90;31.33;;;;;;;;;;5109513;27;20945;-55
2020/12/14 07:57:16;;;;;;;50.83;30.40;;;;;;;;;;5109174;28;20467;-56
2020/12/14 07:59:42;;;;;;;36.20;22.27;;;;;;;;;;5109372;28;20031;-53
2020/12/14 08:02:11;;;;;;;38.63;22.88;;;;;;;;;;5109315;28;20028;-54
2020/12/14 08:04:37;;;;;;;50.80;29.33;;;;;;;;;;5109242;28;20054;-56
2020/12/14 08:07:04;;;;;;;83.55;49.00;;;;;;;;;;5109047;28;20054;-54
2020/12/14 08:09:31;;;;;;;101.63;54.58;;;;;;;;;;5109393;28;20090;-53
2020/12/14 08:11:58;;;;;;;91.78;53.03;;;;;;;;;;5108610;28;20043;-54
2020/12/14 08:14:25;;;;;;;45.55;26.52;;;;;;;;;;5107411;28;20437;-54
2020/12/14 08:16:51;;;;;;;37.15;22.58;;;;;;;;;;5108918;28;20052;-54
2020/12/14 08:19:19;;;;;;;50.35;27.52;;;;;;;;;;5108897;28;20058;-52
2020/12/14 08:22:03;;;;;;;52.75;27.55;;;;;;;;;;5108804;28;20042;-55
2020/12/14 08:24:29;;;;;;;37.65;22.13;;;;;;;;;;5108921;28;20040;-55
2020/12/14 08:27:00;;;;;;;42.50;22.88;;;;;;;;;;5107232;28;20454;-53
2020/12/14 08:29:28;;;;;;;47.17;26.67;;;;;;;;;;5108385;28;20027;-53
2020/12/14 08:31:57;;;;;;;56.53;29.38;;;;;;;;;;5108376;28;20027;-54
2020/12/14 08:34:30;;;;;;;63.03;35.25;;;;;;;;;;5108726;28;20372;-52
2020/12/14 08:36:56;;;;;;;52.53;30.80;;;;;;;;;;5108254;28;20352;-52
2020/12/14 08:39:22;;;;;;;53.97;31.33;;;;;;;;;;5108491;28;20032;-54
2020/12/14 08:42:01;;;;;;;54.53;33.25;;;;;;;;;;5108072;28;20028;-55
2020/12/14 08:44:27;;;;;;;54.53;31.67;;;;;;;;;;5094773;28;19926;-55
2020/12/14 08:46:53;;;;;;;107.97;64.25;;;;;;;;;;5108595;28;20509;-55
2020/12/14 08:49:20;;;;;;;78.25;45.00;;;;;;;;;;5108069;28;20118;-55
2020/12/14 08:51:48;;;;;;;71.90;40.70;;;;;;;;;;5108462;28;20024;-54
2020/12/14 08:54:15;;;;;;;55.22;33.10;;;;;;;;;;5084292;28;20056;-55
2020/12/14 08:56:42;;;;;;;55.05;32.78;;;;;;;;;;5073352;28;20016;-55
2020/12/14 08:59:15;;;;;;;49.75;30.17;;;;;;;;;;5073506;28;20766;-55
2020/12/14 09:01:54;;;;;;;38.00;23.13;;;;;;;;;;5073981;28;20016;-55
2020/12/14 09:04:47;;;;;;;48.95;29.73;;;;;;;;;;5074301;28;20324;-53
2020/12/14 09:07:21;;;;;;;42.15;25.73;;;;;;;;;;5073292;28;20037;-55
2020/12/14 09:09:47;;;;;;;42.97;26.58;;;;;;;;;;5073708;28;20029;-53
2020/12/14 09:12:13;;;;;;;51.38;30.60;;;;;;;;;;5074389;28;20020;-54
2020/12/14 09:14:39;;;;;;;53.08;31.17;;;;;;;;;;5073522;28;20016;-54
2020/12/14 09:17:13;;;;;;;45.67;26.20;;;;;;;;;;5074000;28;20025;-55
2020/12/14 09:19:39;;;;;;;46.00;27.52;;;;;;;;;;5073751;28;20376;-54
2020/12/14 09:22:05;;;;;;;46.45;27.63;;;;;;;;;;5073663;28;20036;-54
2020/12/14 09:24:32;;;;;;;59.38;33.47;;;;;;;;;;5074170;28;20069;-54
2020/12/14 09:27:11;;;;;;;67.65;38.58;;;;;;;;;;5073647;28;20020;-55
2020/12/14 09:29:37;;;;;;;55.88;33.05;;;;;;;;;;5074137;28;20430;-55
2020/12/14 09:32:05;;;;;;;44.42;25.52;;;;;;;;;;5073595;28;20027;-54
2020/12/14 09:34:31;;;;;;;48.17;27.20;;;;;;;;;;5073982;28;20020;-54
2020/12/14 09:36:58;;;;;;;56.00;30.35;;;;;;;;;;5073624;28;20021;-54
2020/12/14 09:39:25;;;;;;;45.53;27.27;;;;;;;;;;5073475;28;20027;-54
2020/12/14 09:41:51;;;;;;;43.95;27.13;;;;;;;;;;5073346;28;20021;-55
2020/12/14 09:44:17;;;;;;;43.25;26.38;;;;;;;;;;5071443;28;20163;-55
2020/12/14 09:46:44;;;;;;;48.10;29.92;;;;;;;;;;5073511;28;20028;-53
2020/12/14 09:49:10;;;;;;;47.10;28.98;;;;;;;;;;5072457;28;20487;-53
2020/12/14 09:51:36;;;;;;;55.85;33.08;;;;;;;;;;5073603;28;20099;-54
2020/12/14 09:54:03;;;;;;;56.40;34.60;;;;;;;;;;5072970;28;20044;-54
2020/12/14 09:56:29;;;;;;;55.72;34.00;;;;;;;;;;5073971;28;20030;-52
2020/12/14 09:58:55;;;;;;;48.67;29.83;;;;;;;;;;5072879;28;20031;-53
2020/12/14 10:01:24;;;;;;;42.95;27.70;;;;;;;;;;5073033;28;20028;-54
2020/12/14 10:03:50;;;;;;;60.53;37.38;;;;;;;;;;5072788;28;20373;-52
2020/12/14 10:06:16;;;;;;;62.33;38.33;;;;;;;;;;5071998;28;20368;-53
2020/12/14 10:08:42;;;;;;;59.65;35.80;;;;;;;;;;5073341;28;20025;-54
2020/12/14 10:11:08;;;;;;;56.70;33.90;;;;;;;;;;5072999;28;20046;-54
2020/12/14 10:13:35;;;;;;;67.25;40.33;;;;;;;;;;5072787;28;20029;-55
2020/12/14 10:16:01;;;;;;;70.05;42.33;;;;;;;;;;5072757;28;20062;-54
2020/12/14 10:18:27;;;;;;;83.47;50.72;;;;;;;;;;5072881;28;20920;-55
2020/12/14 10:20:53;;;;;;;73.85;46.13;;;;;;;;;;5071000;28;20024;-53
2020/12/14 10:23:19;;;;;;;90.43;52.88;;;;;;;;;;5072284;28;20047;-53
2020/12/14 10:25:45;;;;;;;58.17;35.10;;;;;;;;;;5072266;28;20036;-53
2020/12/14 10:28:12;;;;;;;41.97;26.50;;;;;;;;;;5072352;28;20036;-54
2020/12/14 10:30:38;;;;;;;49.88;30.02;;;;;;;;;;5072398;28;20103;-53
2020/12/14 10:33:05;;;;;;;58.10;34.53;;;;;;;;;;5072289;28;20031;-53
2020/12/14 10:35:31;;;;;;;52.60;32.60;;;;;;;;;;5072684;28;20024;-54
2020/12/14 10:37:58;;;;;;;48.67;30.73;;;;;;;;;;5071876;28;20025;-55
2020/12/14 10:40:26;;;;;;;61.58;35.22;;;;;;;;;;5072407;28;20028;-55
2020/12/14 10:42:52;;;;;;;64.63;38.28;;;;;;;;;;5071773;28;20044;-53
2020/12/14 10:45:18;;;;;;;84.15;49.33;;;;;;;;;;5072023;28;20381;-55
2020/12/14 10:47:45;;;;;;;51.53;32.83;;;;;;;;;;5071726;28;20388;-53
2020/12/14 10:50:11;;;;;;;56.05;32.88;;;;;;;;;;5072016;28;20043;-52
2020/12/14 10:52:37;;;;;;;56.17;31.67;;;;;;;;;;5071626;28;20078;-54
2020/12/14 10:55:03;;;;;;;49.35;29.38;;;;;;;;;;5070873;28;20031;-53
2020/12/14 10:57:30;;;;;;;48.92;29.10;;;;;;;;;;5070943;28;20467;-52
2020/12/14 10:59:57;;;;;;;43.38;26.42;;;;;;;;;;5071760;28;20024;-53
2020/12/14 11:02:24;;;;;;;51.00;29.10;;;;;;;;;;5071681;28;20020;-55
2020/12/14 11:04:51;;;;;;;59.88;35.70;;;;;;;;;;5072013;28;20048;-54
2020/12/14 11:07:17;;;;;;;58.63;34.03;;;;;;;;;;5071746;28;20439;-53
2020/12/14 11:09:43;;;;;;;70.20;39.75;;;;;;;;;;5071649;28;20028;-52
2020/12/14 11:12:09;;;;;;;70.10;41.33;;;;;;;;;;5072151;28;20028;-54
2020/12/14 11:14:35;;;;;;;42.95;27.17;;;;;;;;;;5071258;28;20031;-55
2020/12/14 11:17:02;;;;;;;46.38;26.60;;;;;;;;;;5071153;28;20025;-51
2020/12/14 11:19:28;;;;;;;47.38;27.75;;;;;;;;;;5071633;28;20017;-52
2020/12/14 11:21:55;;;;;;;44.45;26.55;;;;;;;;;;5072600;28;20028;-53
2020/12/14 11:24:22;;;;;;;45.58;27.33;;;;;;;;;;5091765;28;20112;-52
2020/12/14 11:26:48;;;;;;;44.83;25.70;;;;;;;;;;5091583;28;20028;-52
2020/12/14 11:29:14;;;;;;;36.22;23.25;;;;;;;;;;5091499;28;20028;-54
2020/12/14 11:31:41;;;;;;;62.70;33.90;;;;;;;;;;5091593;28;20034;-52
2020/12/14 11:34:07;;;;;;;35.60;22.35;;;;;;;;;;5090837;28;20034;-55
2020/12/14 11:36:33;;;;;;;36.75;22.33;;;;;;;;;;5091812;28;20074;-53
2020/12/14 11:39:00;;;;;;;45.05;26.10;;;;;;;;;;5091813;28;20081;-54
2020/12/14 11:41:27;;;;;;;46.47;26.63;;;;;;;;;;5091426;28;20111;-53
2020/12/14 11:43:53;;;;;;;57.50;33.10;;;;;;;;;;5091410;28;20380;-54
2020/12/14 11:46:20;;;;;;;55.78;31.88;;;;;;;;;;5091008;28;20502;-52
2020/12/14 11:48:46;;;;;;;45.58;26.83;;;;;;;;;;5091542;28;20383;-53
2020/12/14 11:51:12;;;;;;;48.03;28.13;;;;;;;;;;5091548;28;20102;-54
2020/12/14 11:53:38;;;;;;;47.20;25.98;;;;;;;;;;5091103;28;20044;-54
2020/12/14 11:56:04;;;;;;;58.10;33.63;;;;;;;;;;5091340;28;20028;-54
2020/12/14 11:58:30;;;;;;;57.97;34.03;;;;;;;;;;5091046;28;20054;-54
2020/12/14 12:00:56;;;;;;;53.10;32.47;;;;;;;;;;5090967;28;20066;-51
2020/12/14 12:03:22;;;;;;;45.10;27.65;;;;;;;;;;5090827;28;20032;-54
2020/12/14 12:05:48;;;;;;;52.15;30.13;;;;;;;;;;5091327;28;20104;-54
2020/12/14 12:08:14;;;;;;;41.33;24.25;;;;;;;;;;5088142;28;20032;-55
2020/12/14 12:10:41;;;;;;;39.78;24.23;;;;;;;;;;5091472;28;20020;-53
2020/12/14 12:13:07;;;;;;;50.25;29.10;;;;;;;;;;5091970;28;20521;-54
2020/12/14 12:15:34;;;;;;;54.00;30.77;;;;;;;;;;5091697;28;20024;-53
2020/12/14 12:18:00;;;;;;;71.22;39.72;;;;;;;;;;5091719;28;20412;-53
2020/12/14 12:20:26;;;;;;;58.20;33.60;;;;;;;;;;5090838;28;20024;-54
2020/12/14 12:22:57;;;;;;;60.75;33.85;;;;;;;;;;5090645;28;20036;-53
2020/12/14 12:25:24;;;;;;;70.93;40.47;;;;;;;;;;5091227;28;20032;-53
2020/12/14 12:27:50;;;;;;;70.63;40.83;;;;;;;;;;5090662;28;20023;-56
2020/12/14 12:30:16;;;;;;;58.72;34.65;;;;;;;;;;5092153;28;20423;-55
2020/12/14 12:32:42;;;;;;;60.25;34.53;;;;;;;;;;5095174;28;20015;-55
2020/12/14 12:35:08;;;;;;;58.33;32.65;;;;;;;;;;5095163;28;20099;-56
2020/12/14 12:37:34;;;;;;;52.88;31.25;;;;;;;;;;5094473;28;20024;-53
2020/12/14 12:40:03;;;;;;;48.03;28.15;;;;;;;;;;5092983;28;20020;-55
2020/12/14 12:42:29;;;;;;;47.00;29.17;;;;;;;;;;5095137;28;20032;-54
2020/12/14 12:44:55;;;;;;;45.47;27.00;;;;;;;;;;5095247;28;20016;-55
2020/12/14 12:47:21;;;;;;;49.10;28.17;;;;;;;;;;5095515;28;20498;-55
2020/12/14 12:49:47;;;;;;;56.40;32.33;;;;;;;;;;5095619;28;20030;-56
2020/12/14 12:52:13;;;;;;;49.15;26.67;;;;;;;;;;5095377;28;20075;-56
2020/12/14 12:54:39;;;;;;;48.50;27.15;;;;;;;;;;5094080;28;20491;-57
2020/12/14 12:57:05;;;;;;;73.60;39.47;;;;;;;;;;5094674;28;20503;-56
2020/12/14 12:59:32;;;;;;;89.43;49.95;;;;;;;;;;5094378;28;21417;-55
2020/12/14 13:01:58;;;;;;;83.38;44.97;;;;;;;;;;5094570;28;20085;-55
2020/12/14 13:04:24;;;;;;;76.28;43.70;;;;;;;;;;5094565;28;20028;-55
2020/12/14 13:06:53;;;;;;;77.25;41.53;;;;;;;;;;5094642;28;20020;-55
2020/12/14 13:09:19;;;;;;;68.88;40.28;;;;;;;;;;5087570;28;20027;-57
2020/12/14 13:11:46;;;;;;;66.38;39.00;;;;;;;;;;5093031;28;20030;-55
2020/12/14 13:14:12;;;;;;;52.35;30.20;;;;;;;;;;5094005;28;20055;-56
2020/12/14 13:16:39;;;;;;;54.55;32.05;;;;;;;;;;5094435;28;20536;-56
2020/12/14 13:19:08;;;;;;;51.17;31.38;;;;;;;;;;5094752;28;20036;-56
2020/12/14 13:21:34;;;;;;;65.30;39.30;;;;;;;;;;5093819;28;20383;-56
2020/12/14 13:24:01;;;;;;;70.70;40.13;;;;;;;;;;5093642;28;20036;-57
2020/12/14 13:26:27;;;;;;;67.68;39.97;;;;;;;;;;5094701;28;20562;-56
2020/12/14 13:28:53;;;;;;;58.83;34.53;;;;;;;;;;5093358;28;20099;-55
2020/12/14 13:31:20;;;;;;;50.75;30.50;;;;;;;;;;5093946;28;20054;-56
2020/12/14 13:33:49;;;;;;;66.40;37.88;;;;;;;;;;5093819;28;20024;-56
2020/12/14 13:36:16;;;;;;;90.70;50.42;;;;;;;;;;5093188;28;20027;-56
2020/12/14 13:38:42;;;;;;;77.82;42.50;;;;;;;;;;5093708;28;20031;-56
2020/12/14 13:41:08;;;;;;;70.53;39.03;;;;;;;;;;5093874;28;20090;-56
2020/12/14 13:43:34;;;;;;;65.85;38.40;;;;;;;;;;5093771;28;20404;-57
2020/12/14 13:46:00;;;;;;;69.05;41.10;;;;;;;;;;5091991;28;20016;-52
2020/12/14 13:48:26;;;;;;;77.57;43.45;;;;;;;;;;5093917;28;20028;-54
2020/12/14 13:50:52;;;;;;;71.55;43.13;;;;;;;;;;5093421;28;20853;-54
2020/12/14 13:53:19;;;;;;;76.50;46.78;;;;;;;;;;5091968;28;20047;-54
2020/12/14 13:55:45;;;;;;;57.60;36.35;;;;;;;;;;5093536;28;20031;-57
2020/12/14 13:58:11;;;;;;;61.53;36.80;;;;;;;;;;5093875;28;20028;-56
2020/12/14 14:00:37;;;;;;;66.80;40.13;;;;;;;;;;5092387;28;20020;-56
2020/12/14 14:03:03;;;;;;;87.75;54.03;;;;;;;;;;5093591;28;20407;-54
2020/12/14 14:05:29;;;;;;;86.88;53.08;;;;;;;;;;5093217;28;20020;-54
2020/12/14 14:07:55;;;;;;;123.40;70.68;;;;;;;;;;5092926;28;20024;-55
2020/12/14 14:10:22;;;;;;;107.20;58.55;;;;;;;;;;5092232;28;20024;-56
2020/12/14 14:12:48;;;;;;;76.85;43.85;;;;;;;;;;5093050;28;20031;-56
2020/12/14 14:15:14;;;;;;;87.30;48.65;;;;;;;;;;5091609;28;20025;-53
2020/12/14 14:17:40;;;;;;;84.47;45.17;;;;;;;;;;5093263;28;20016;-54
2020/12/14 14:20:06;;;;;;;73.75;41.40;;;;;;;;;;5093525;28;20103;-56
2020/12/14 14:22:33;;;;;;;70.22;40.70;;;;;;;;;;5092784;28;20035;-51
2020/12/14 14:24:59;;;;;;;99.72;56.78;;;;;;;;;;5090582;28;20438;-55
2020/12/14 14:27:25;;;;;;;82.30;49.65;;;;;;;;;;5093330;28;20020;-55
2020/12/14 14:29:53;;;;;;;67.63;38.88;;;;;;;;;;5090047;28;20030;-56
2020/12/14 14:32:19;;;;;;;85.55;42.38;;;;;;;;;;5093231;28;20031;-56
2020/12/14 14:34:46;;;;;;;54.60;31.65;;;;;;;;;;5092688;28;20066;-54